Latest Weather Observations for Cape Flattery

IDQ60801

Issued at 8:02 am EST Thursday 29 September 2016 (issued every 30 minutes, with the page automatically refreshed every 10 minutes)

About weather observations | Map of weather stations | Latest weather observations for QLD | Other Formats
Station Details ID: 031213 Name: CAPE FLATTERY Lat: -14.97 Lon: 145.31 Height: 18.5 m
Data from the previous 72 hours. | See also: Recent months at Cape Flattery
Date/Time
EST
Temp
°C
App
Temp
°C
Dew
Point
°C
Rel
Hum
%
Delta-T
°C
Wind Press
QNH
hPa
Press
MSL
hPa
Rain since
9am
mm
Dir  Spd
km/h
Gust
km/h
Spd
kts
Gust
kts
29/08:00am 27.1 28.7 20.7 68 4.2 E 13 19 7 10 1012.1 1012.0 0.0
29/07:30am 26.3 29.0 21.3 74 3.3 ESE 9 15 5 8 1012.0 1011.9 0.0
29/07:00am 24.9 28.4 21.8 83 2.1 E 6 7 3 4 1011.6 1011.5 0.0
29/06:30am 23.2 25.6 20.9 87 1.5 ENE 9 13 5 7 1011.4 1011.3 0.0
29/06:00am 22.8 25.3 20.3 86 1.6 NE 7 9 4 5 1011.1 1011.0 0.0
29/05:30am 23.1 25.4 20.6 86 1.6 ENE 9 11 5 6 1010.7 1010.6 0.0
29/05:00am 23.0 25.2 20.3 85 1.7 ENE 9 11 5 6 1010.5 1010.4 0.0
29/04:30am 23.3 25.5 20.4 84 1.9 ENE 9 13 5 7 1010.2 1010.1 0.0
29/04:00am 23.2 25.1 20.5 85 1.8 ENE 11 15 6 8 1009.9 1009.8 0.0
29/03:30am 22.7 24.3 20.0 85 1.7 E 11 11 6 6 1010.2 1010.1 0.0
29/03:00am 23.2 25.3 20.2 83 1.9 ENE 9 15 5 8 1010.5 1010.4 0.0
29/02:30am 23.0 24.8 20.3 85 1.7 E 11 15 6 8 1010.5 1010.4 0.0
29/02:00am 22.8 24.4 20.0 84 1.8 E 11 13 6 7 1011.1 1011.0 0.0
29/01:30am 23.1 25.2 20.1 83 1.9 E 9 11 5 6 1011.5 1011.4 0.0
29/01:00am 23.5 25.2 20.2 82 2.1 E 11 15 6 8 1011.7 1011.6 0.0
29/12:30am 23.7 25.5 20.4 82 2.1 E 11 13 6 7 1012.1 1012.0 0.0
29/12:00am 23.9 25.7 20.4 81 2.3 E 11 13 6 7 1012.5 1012.4 0.0
 
Date/Time
EST
Temp
°C
App
Temp
°C
Dew
Point
°C
Rel
Hum
%
Delta-T
°C
Wind Press
QNH
hPa
Press
MSL
hPa
Rain since
9am
mm
Dir  Spd
km/h
Gust
km/h
Spd
kts
Gust
kts
28/11:30pm 23.7 25.5 20.4 82 2.1 ESE 11 13 6 7 1012.7 1012.6 0.0
28/11:00pm 23.8 25.6 20.3 81 2.3 ESE 11 13 6 7 1012.9 1012.8 0.0
28/10:30pm 24.1 26.0 20.6 81 2.3 ESE 11 13 6 7 1012.9 1012.8 0.0
28/10:00pm 24.2 26.0 20.3 79 2.5 E 11 13 6 7 1012.9 1012.8 0.0
28/09:30pm 24.5 26.3 20.4 78 2.7 ESE 11 17 6 9 1012.7 1012.6 0.0
28/09:00pm 24.9 26.9 20.8 78 2.7 ESE 11 15 6 8 1012.4 1012.3 0.0
28/08:30pm 25.1 26.8 21.0 78 2.7 ESE 13 15 7 8 1011.9 1011.8 0.0
28/08:00pm 25.1 26.6 20.6 76 2.9 ESE 13 19 7 10 1011.6 1011.5 0.0
28/07:30pm 25.1 26.7 20.8 77 2.8 ESE 13 17 7 9 1011.3 1011.2 0.0
28/07:00pm 25.5 27.0 20.5 74 3.3 ESE 13 19 7 10 1010.9 1010.8 0.0
28/06:30pm 25.9 27.0 20.5 72 3.5 ESE 15 22 8 12 1010.7 1010.6 0.0
28/06:00pm 26.3 27.4 20.4 70 3.9 ESE 15 20 8 11 1010.6 1010.5 0.0
28/05:30pm 26.7 27.7 20.3 68 4.2 ESE 15 20 8 11 1010.3 1010.2 0.0
28/05:00pm 27.6 28.3 20.4 65 4.7 ESE 17 26 9 14 1010.1 1010.0 0.0
28/04:30pm 28.1 28.6 20.1 62 5.2 ESE 17 24 9 13 1009.9 1009.8 0.0
28/04:00pm 29.0 30.2 20.7 61 5.5 ESE 15 22 8 12 1009.9 1009.8 0.0
28/03:30pm 29.3 30.1 20.7 59 5.7 SE 17 26 9 14 1010.0 1009.9 0.0
28/03:00pm 29.3 30.1 19.9 57 6.2 ESE 15 26 8 14 1010.1 1010.0 0.0
28/02:30pm 29.5 30.0 20.1 57 6.2 ESE 17 24 9 13 1010.5 1010.4 0.0
28/02:00pm 29.8 30.5 20.4 57 6.2 ENE 17 22 9 12 1010.8 1010.7 0.0
28/01:30pm 28.7 29.3 21.0 63 5.1 SE 19 28 10 15 1011.1 1011.0 0.0
28/01:00pm 28.4 28.4 20.2 61 5.4 SE 20 28 11 15 1011.5 1011.4 0.0
28/12:30pm 28.9 29.1 20.6 61 5.5 SE 20 30 11 16 1012.1 1012.0 0.0
28/12:00pm 29.0 29.1 20.4 59 5.7 ESE 20 30 11 16 1012.6 1012.5 0.0
28/11:30am 28.4 28.7 20.7 63 5.1 SE 20 28 11 15 1013.1 1013.0 0.0
28/11:00am 29.6 30.3 21.5 61 5.4 SE 20 28 11 15 1013.6 1013.5 0.0
28/10:30am 29.1 29.7 20.3 59 5.8 ESE 17 30 9 16 1013.7 1013.6 0.0
28/10:00am 28.3 28.5 20.6 63 5.1 SE 20 30 11 16 1014.1 1014.0 0.0
28/09:30am 28.6 29.1 21.1 64 5.0 ESE 20 30 11 16 1014.2 1014.1 0.0
28/09:00am 27.5 27.6 20.3 65 4.7 SE 20 28 11 15 1014.2 1014.1 0.0
28/08:30am 28.3 28.6 20.8 63 5.0 E 20 30 11 16 1013.9 1013.8 0.0
28/08:00am 27.6 27.5 20.7 66 4.6 ESE 22 30 12 16 1013.5 1013.4 0.0
28/07:30am 26.8 27.2 20.6 69 4.1 ESE 19 26 10 14 1013.1 1013.0 0.0
28/07:00am 26.1 27.1 21.1 74 3.3 ESE 17 26 9 14 1012.7 1012.6 0.0
28/06:30am 24.7 27.0 21.4 82 2.2 ESE 11 19 6 10 1012.2 1012.1 0.0
28/06:00am 24.4 25.6 20.7 80 2.4 E 15 22 8 12 1011.9 1011.8 0.0
28/05:30am 24.5 25.6 20.4 78 2.7 ESE 15 24 8 13 1011.8 1011.7 0.0
28/05:00am 24.7 25.9 20.6 78 2.7 ESE 15 20 8 11 1011.6 1011.5 0.0
28/04:30am 24.9 25.8 20.8 78 2.7 ESE 17 24 9 13 1011.3 1011.2 0.0
28/04:00am 24.9 25.9 21.0 79 2.6 ESE 17 24 9 13 1011.1 1011.0 0.0
28/03:30am 24.7 25.5 20.6 78 2.7 ESE 17 24 9 13 1011.1 1011.0 0.0
28/03:00am 25.0 25.9 20.9 78 2.7 ESE 17 26 9 14 1011.1 1011.0 0.0
28/02:30am 25.0 25.6 21.1 79 2.6 ESE 19 24 10 13 1011.4 1011.3 0.0
28/02:00am 25.0 25.9 20.9 78 2.7 ESE 17 24 9 13 1011.7 1011.6 0.0
28/01:30am 25.1 26.1 21.0 78 2.7 ESE 17 28 9 15 1011.9 1011.8 0.0
28/01:00am 25.2 26.0 21.3 79 2.6 ESE 19 28 10 15 1012.2 1012.1 0.0
28/12:30am 25.6 25.9 20.8 75 3.2 ESE 20 32 11 17 1012.6 1012.5 0.0
28/12:00am 25.6 25.9 21.5 78 2.7 SE 22 28 12 15 1013.0 1012.9 0.0
 
Date/Time
EST
Temp
°C
App
Temp
°C
Dew
Point
°C
Rel
Hum
%
Delta-T
°C
Wind Press
QNH
hPa
Press
MSL
hPa
Rain since
9am
mm
Dir  Spd
km/h
Gust
km/h
Spd
kts
Gust
kts
27/11:30pm 25.6 25.9 20.8 75 3.2 ESE 20 33 11 18 1013.2 1013.1 0.0
27/11:00pm 25.8 26.5 21.5 77 2.9 SE 20 30 11 16 1013.1 1013.0 0.0
27/10:30pm 25.7 26.7 21.8 79 2.6 ESE 19 26 10 14 1013.0 1012.9 0.0
27/10:00pm 25.7 26.5 21.4 77 2.9 ESE 19 28 10 15 1013.2 1013.1 0.0
27/09:30pm 25.8 26.5 21.5 77 2.9 ESE 20 28 11 15 1012.9 1012.8 0.0
27/09:00pm 25.8 26.1 21.5 77 2.9 SE 22 33 12 18 1012.5 1012.4 0.0
27/08:30pm 25.9 26.6 21.6 77 2.9 SE 20 32 11 17 1012.2 1012.1 0.0
27/08:00pm 26.0 27.0 22.1 79 2.6 SE 20 30 11 16 1011.9 1011.8 0.0
27/07:30pm 25.9 26.1 21.3 76 3.0 SE 22 32 12 17 1011.7 1011.6 0.0
27/07:00pm 26.0 26.5 21.9 78 2.7 SE 22 30 12 16 1011.5 1011.4 0.0
27/06:30pm 26.0 26.2 21.4 76 3.1 SE 22 30 12 16 1011.1 1011.0 0.0
27/06:00pm 26.5 27.3 21.7 75 3.2 SE 20 26 11 14 1010.8 1010.7 0.0
27/05:30pm 27.3 27.6 21.6 71 3.8 SE 22 32 12 17 1010.6 1010.5 0.0
27/05:00pm 27.8 28.4 22.1 71 3.8 SE 22 28 12 15 1010.3 1010.2 0.0
27/04:30pm 28.3 28.9 22.1 69 4.2 SE 22 30 12 16 1010.0 1009.9 0.0
27/04:00pm 28.5 28.3 22.0 68 4.4 SE 26 35 14 19 1010.0 1009.9 0.0
27/03:30pm 28.9 29.2 22.2 67 4.5 SE 24 32 13 17 1010.0 1009.9 0.0
27/03:00pm 29.4 29.6 22.1 65 4.9 SE 24 32 13 17 1010.3 1010.2 0.0
27/02:30pm 29.5 29.0 21.4 61 5.4 SE 26 37 14 20 1010.5 1010.4 0.0
27/02:00pm 30.1 30.3 22.0 62 5.5 SE 24 32 13 17 1011.0 1010.9 0.0
27/01:30pm 29.5 29.5 21.7 63 5.2 SE 24 32 13 17 1011.4 1011.3 0.0
27/01:00pm 29.7 29.4 21.9 63 5.3 SE 26 33 14 18 1011.9 1011.8 0.0
27/12:30pm 29.7 29.0 21.1 60 5.7 SE 26 35 14 19 1012.5 1012.4 0.0
27/12:00pm 30.1 30.6 22.0 62 5.5 SE 22 32 12 17 1013.0 1012.9 0.0
27/11:30am 29.0 28.9 21.5 64 5.0 SE 24 32 13 17 1013.4 1013.3 0.0
27/11:00am 29.5 29.7 22.0 64 5.1 SE 24 32 13 17 1013.8 1013.7 0.0
27/10:30am 29.7 29.6 22.2 64 5.1 SE 26 35 14 19 1014.0 1013.9 0.0
27/10:00am 29.1 28.3 21.6 64 5.0 SE 28 35 15 19 1014.3 1014.2 0.0
27/09:30am 29.1 28.9 22.1 66 4.7 SE 26 35 14 19 1014.3 1014.2 0.0
27/09:00am 28.6 28.1 22.1 68 4.4 SE 28 35 15 19 1014.2 1014.1 0.0
27/08:30am 28.1 28.2 21.9 69 4.2 SE 24 33 13 18 1014.2 1014.1 0.0
27/08:00am 26.8 27.3 22.0 75 3.2 SE 22 33 12 18 1013.9 1013.8 0.0
27/07:30am 26.4 27.1 21.6 75 3.2 SE 20 28 11 15 1013.6 1013.5 0.0
27/07:00am 26.1 27.2 22.4 80 2.5 SE 20 24 11 13 1013.0 1012.9 0.0
27/06:30am 25.2 27.5 22.7 86 1.7 SE 15 22 8 12 1012.7 1012.6 0.0
27/06:00am 24.6 26.4 22.5 88 1.4 SE 17 20 9 11 1012.3 1012.2 0.0
27/05:30am 23.8 26.5 22.2 91 1.1 ESE 11 13 6 7 1012.0 1011.9 0.0
27/05:00am 23.7 26.8 22.1 91 1.1 ESE 9 13 5 7 1011.7 1011.6 0.0
27/04:30am 23.4 26.3 21.8 91 1.1 ESE 9 13 5 7 1011.5 1011.4 0.0
27/04:00am 23.7 27.2 22.1 91 1.1 E 7 11 4 6 1011.3 1011.2 0.0
27/03:30am 23.6 26.6 21.9 90 1.1 E 9 11 5 6 1011.2 1011.1 0.0
27/03:00am 23.8 26.8 21.9 89 1.3 E 9 11 5 6 1011.3 1011.2 0.0
27/02:30am 24.1 27.3 22.4 90 1.1 E 9 11 5 6 1011.7 1011.6 0.0
27/02:00am 24.0 26.8 22.3 90 1.1 E 11 15 6 8 1012.1 1012.0 0.0
27/01:30am 24.0 27.5 22.1 89 1.3 E 7 11 4 6 1012.5 1012.4 0.0
27/01:00am 24.2 27.0 22.3 89 1.3 E 11 13 6 7 1012.8 1012.7 0.0
27/12:30am 24.4 27.6 22.3 88 1.4 E 9 11 5 6 1013.1 1013.0 0.0
27/12:00am 24.7 27.9 22.4 87 1.5 ESE 9 11 5 6 1013.4 1013.3 0.0
 
Date/Time
EST
Temp
°C
App
Temp
°C
Dew
Point
°C
Rel
Hum
%
Delta-T
°C
Wind Press
QNH
hPa
Press
MSL
hPa
Rain since
9am
mm
Dir  Spd
km/h
Gust
km/h
Spd
kts
Gust
kts
26/11:30pm 24.7 27.6 22.4 87 1.5 ESE 11 13 6 7 1013.7 1013.6 0.0
26/11:00pm 24.9 28.1 22.4 86 1.7 ESE 9 13 5 7 1013.9 1013.8 0.0
26/10:30pm 25.1 27.6 22.4 85 1.8 ESE 13 17 7 9 1013.8 1013.7 0.0
26/10:00pm 25.2 28.5 22.5 85 1.8 ESE 9 15 5 8 1013.7 1013.6 0.0
26/09:30pm 25.4 27.9 22.5 84 2.0 ESE 13 19 7 10 1013.6 1013.5 0.0
26/09:00pm 25.4 27.9 22.5 84 2.0 ESE 13 17 7 9 1013.5 1013.4 0.0
26/08:30pm 25.2 28.1 22.5 85 1.8 ESE 11 17 6 9 1013.0 1012.9 0.0
26/08:00pm 25.2 28.0 22.3 84 1.9 ESE 11 15 6 8 1012.7 1012.6 0.0
26/07:30pm 25.2 27.9 22.1 83 2.1 ESE 11 15 6 8 1012.4 1012.3 0.0
26/07:00pm 25.3 28.2 21.8 81 2.3 E 9 13 5 7 1011.9 1011.8 0.0
26/06:30pm 25.8 28.0 21.9 79 2.6 ESE 13 17 7 9 1011.6 1011.5 0.0
26/06:00pm 26.5 28.2 21.7 75 3.2 ESE 15 20 8 11 1011.2 1011.1 0.0
26/05:30pm 27.3 28.2 22.0 73 3.6 ESE 20 26 11 14 1010.9 1010.8 0.0
26/05:00pm 27.5 28.4 22.0 72 3.7 SE 20 26 11 14 1010.7 1010.6 0.0
26/04:30pm 28.3 29.4 22.3 70 4.1 SE 20 28 11 15 1010.4 1010.3 0.0
26/04:00pm 28.9 30.2 22.4 68 4.4 SE 19 26 10 14 1010.3 1010.2 0.0
26/03:30pm 28.7 29.7 22.2 68 4.4 SE 20 28 11 15 1010.4 1010.3 0.0
26/03:00pm 29.3 30.0 22.3 66 4.7 SE 22 30 12 16 1010.5 1010.4 0.0
26/02:30pm 29.3 29.7 21.8 64 5.0 SE 22 30 12 16 1010.5 1010.4 0.0
26/02:00pm 30.2 31.2 22.1 62 5.5 SE 20 32 11 17 1010.7 1010.6 0.0
26/01:30pm 29.7 30.0 22.2 64 5.1 SE 24 30 13 16 1010.9 1010.8 0.0
26/01:00pm 29.5 30.2 22.2 65 4.9 SE 22 30 12 16 1011.3 1011.2 0.0
26/12:30pm 29.1 29.5 21.8 64 4.9 SE 22 33 12 18 1011.7 1011.6 0.0
26/12:00pm 29.3 29.8 22.0 64 4.9 SSE 22 32 12 17 1012.2 1012.1 0.0
26/11:30am 29.1 29.9 21.8 64 4.9 SE 20 32 11 17 1012.6 1012.5 0.0
26/11:00am 29.2 29.9 22.2 66 4.7 SE 22 28 12 15 1013.1 1013.0 0.0
26/10:30am 29.8 31.2 22.8 66 4.8 SE 20 30 11 16 1013.2 1013.1 0.0
26/10:00am 28.3 29.3 21.8 68 4.4 SE 19 28 10 15 1013.3 1013.2 0.0
26/09:30am 28.8 30.7 22.8 70 4.1 SE 17 24 9 13 1013.3 1013.2 0.0
26/09:00am 27.9 29.2 21.7 69 4.2 SSE 17 24 9 13 1013.4 1013.3 0.0
26/08:30am 27.6 30.1 23.2 77 3.0 SE 15 20 8 11 1013.4 1013.3 0.0

Other Formats:

Comma delimited format used in spreadsheet applications
http://www.bom.gov.au/fwo/IDQ60801/IDQ60801.94188.axf

JavaScript Object Notation format (JSON) in row-major order
http://www.bom.gov.au/fwo/IDQ60801/IDQ60801.94188.json